Time;durP1;ratioP1;P1;durP2;ratioP2;P2;SDS_P1;SDS_P2;PMS_P1;PMS_P2;Temp;Humidity;BMP_temperature;BMP_pressure;BME280_temperature;BME280_humidity;BME280_pressure;Samples;Min_cycle;Max_cycle;Signal;HPM_P1;HPM_P2
2023/03/12 00:01:54;;;;;;;21.55;9.73;;;;;;;2.20;92.91;100220.13;8319167;28;20041;-52
2023/03/12 00:05:54;;;;;;;15.73;8.02;;;;;;;2.26;91.89;100216.22;8310899;28;20045;-52
2023/03/12 00:09:55;;;;;;;15.50;7.57;;;;;;;2.27;91.35;100205.44;8312883;28;20049;-52
2023/03/12 00:13:57;;;;;;;16.85;7.75;;;;;;;2.27;91.54;100197.44;8311727;28;20522;-51
2023/03/12 00:17:57;;;;;;;16.83;8.70;;;;;;;2.26;92.24;100203.75;8315032;28;20150;-52
2023/03/12 00:21:58;;;;;;;17.10;8.35;;;;;;;2.29;92.12;100192.03;8318444;28;20049;-52
2023/03/12 00:26:01;;;;;;;16.67;8.63;;;;;;;2.26;92.25;100201.09;8317888;28;20449;-52
2023/03/12 00:30:03;;;;;;;19.10;8.45;;;;;;;2.27;92.48;100200.13;8317002;28;20049;-51
2023/03/12 00:34:04;;;;;;;19.15;8.93;;;;;;;2.30;92.85;100194.59;8313671;28;20045;-52
2023/03/12 00:38:04;;;;;;;14.93;8.55;;;;;;;2.27;93.21;100188.59;8313192;28;20095;-52
2023/03/12 00:42:05;;;;;;;22.42;8.93;;;;;;;2.27;94.55;100185.91;8317067;28;20050;-50
2023/03/12 00:46:05;;;;;;;13.90;8.32;;;;;;;2.24;94.11;100178.97;8315838;28;20045;-51
2023/03/12 00:50:06;;;;;;;16.98;7.90;;;;;;;2.26;94.22;100168.22;8316702;28;20092;-52
2023/03/12 00:54:07;;;;;;;11.48;7.15;;;;;;;2.32;94.89;100171.38;8315027;28;20041;-53
2023/03/12 00:58:07;;;;;;;21.33;9.57;;;;;;;2.34;95.99;100173.91;8312816;28;20400;-51
2023/03/12 01:02:08;;;;;;;12.00;7.60;;;;;;;2.34;95.75;100182.75;8307216;28;20460;-52
2023/03/12 01:06:09;;;;;;;19.40;9.02;;;;;;;2.35;94.47;100187.13;8308465;28;20048;-52
2023/03/12 01:10:12;;;;;;;14.52;7.20;;;;;;;2.43;93.99;100184.84;8301179;28;20042;-51
2023/03/12 01:14:13;;;;;;;10.97;6.30;;;;;;;2.47;93.53;100175.69;8308875;28;20050;-51
2023/03/12 01:18:13;;;;;;;14.60;6.78;;;;;;;2.49;92.70;100168.47;8315696;28;20044;-50
2023/03/12 01:22:14;;;;;;;13.43;6.18;;;;;;;2.54;91.48;100160.16;8333489;28;20040;-50
2023/03/12 01:26:14;;;;;;;6.43;4.97;;;;;;;2.61;90.23;100162.31;8314609;28;20385;-52
2023/03/12 01:30:15;;;;;;;10.15;5.25;;;;;;;2.69;89.83;100153.81;8314190;28;20049;-54
2023/03/12 01:34:15;;;;;;;11.68;5.30;;;;;;;2.73;89.97;100155.31;8316248;28;20042;-53
2023/03/12 01:38:17;;;;;;;8.60;4.97;;;;;;;2.78;89.63;100146.09;8317208;28;20034;-53
2023/03/12 01:42:18;;;;;;;7.43;4.03;;;;;;;2.85;88.49;100134.03;8298577;28;20041;-50
2023/03/12 01:46:31;;;;;;;12.77;4.65;;;;;;;2.82;89.13;100128.91;8305378;28;20077;-51
2023/03/12 01:50:31;;;;;;;11.48;3.85;;;;;;;2.82;89.75;100118.22;8298446;28;20148;-51
2023/03/12 01:54:36;;;;;;;9.40;4.05;;;;;;;2.84;90.44;100107.44;8309431;28;21587;-51
2023/03/12 01:58:44;;;;;;;8.23;4.03;;;;;;;2.89;89.82;100098.16;8312396;28;20071;-51
2023/03/12 02:02:47;;;;;;;9.98;3.75;;;;;;;2.92;89.83;100103.31;8315499;28;20037;-52
2023/03/12 02:07:11;;;;;;;6.40;3.92;;;;;;;2.96;88.89;100094.13;8307155;28;20492;-52
2023/03/12 02:11:11;;;;;;;6.15;3.65;;;;;;;3.06;87.59;100100.56;8311841;28;20045;-53
2023/03/12 02:15:12;;;;;;;9.35;4.00;;;;;;;3.12;87.40;100077.94;8319146;28;20041;-58
2023/03/12 02:19:45;;;;;;;8.27;3.42;;;;;;;3.09;87.07;100073.66;8312955;28;20041;-57
2023/03/12 02:23:59;;;;;;;5.78;3.53;;;;;;;3.12;87.00;100078.78;8278153;28;20042;-56
2023/03/12 02:28:06;;;;;;;8.93;3.40;;;;;;;3.16;86.20;100060.72;8288854;28;20424;-57
2023/03/12 02:32:11;;;;;;;12.75;3.67;;;;;;;3.18;86.31;100072.16;8278263;28;20045;-58
2023/03/12 02:36:12;;;;;;;10.27;3.60;;;;;;;3.18;86.56;100065.03;8288815;28;20117;-57
2023/03/12 02:40:23;;;;;;;8.77;3.53;;;;;;;3.24;86.67;100069.94;8294202;28;20041;-57
2023/03/12 02:44:26;;;;;;;8.27;3.03;;;;;;;3.22;87.22;100073.66;8322058;28;20120;-57
2023/03/12 02:48:27;;;;;;;8.52;4.05;;;;;;;3.26;86.81;100065.34;8320553;28;20531;-57
2023/03/12 02:52:29;;;;;;;8.13;3.85;;;;;;;3.25;87.15;100068.09;8319790;28;20064;-57
2023/03/12 02:56:29;;;;;;;9.88;3.97;;;;;;;3.24;87.78;100061.94;8323128;28;20438;-58
2023/03/12 03:00:31;;;;;;;9.63;3.75;;;;;;;3.23;88.85;100065.53;8324984;28;20179;-58
2023/03/12 03:04:33;;;;;;;12.35;4.15;;;;;;;3.21;89.93;100062.13;8318198;28;20050;-57
2023/03/12 03:08:34;;;;;;;11.02;4.63;;;;;;;3.19;89.72;100048.03;8326092;28;20060;-59
2023/03/12 03:12:35;;;;;;;11.48;4.60;;;;;;;3.30;87.37;100050.78;8326796;28;20049;-59
2023/03/12 03:16:37;;;;;;;8.65;4.22;;;;;;;3.36;86.84;100055.72;8328776;28;20041;-58
2023/03/12 03:20:38;;;;;;;13.88;4.65;;;;;;;3.41;86.64;100052.72;8326758;28;20619;-58
2023/03/12 03:24:38;;;;;;;9.23;3.53;;;;;;;3.45;85.63;100028.34;8325726;28;20049;-57
2023/03/12 03:28:39;;;;;;;15.48;3.75;;;;;;;3.51;85.25;100046.63;8327025;28;20526;-58
2023/03/12 03:32:39;;;;;;;4.40;3.50;;;;;;;3.58;84.53;100045.25;8326968;28;20098;-58
2023/03/12 03:36:41;;;;;;;12.98;3.65;;;;;;;3.65;84.21;100046.53;8327757;28;20052;-58
2023/03/12 03:40:46;;;;;;;11.93;3.35;;;;;;;3.63;84.33;100037.75;8318204;28;20034;-58
2023/03/12 03:44:46;;;;;;;6.40;4.28;;;;;;;3.63;85.22;100043.09;8327768;28;20037;-57
2023/03/12 03:48:47;;;;;;;5.93;3.15;;;;;;;3.64;85.46;100031.47;8327411;28;20037;-59
2023/03/12 03:52:48;;;;;;;10.32;3.90;;;;;;;3.63;86.14;100043.09;8326233;28;20037;-59
2023/03/12 03:56:49;;;;;;;6.97;4.07;;;;;;;3.65;86.89;100046.53;8327408;28;20041;-59
2023/03/12 04:00:50;;;;;;;6.70;3.50;;;;;;;3.68;86.53;100040.97;8325083;28;20148;-59
2023/03/12 04:04:51;;;;;;;8.30;3.45;;;;;;;3.73;86.94;100041.47;8324982;28;20041;-53
2023/03/12 04:08:52;;;;;;;3.50;2.97;;;;;;;3.78;86.46;100030.44;8326714;28;20063;-52
2023/03/12 04:12:56;;;;;;;5.50;3.42;;;;;;;3.86;86.37;100031.63;8325069;28;20037;-59
2023/03/12 04:16:57;;;;;;;8.05;3.55;;;;;;;3.87;87.07;100052.03;8326785;28;20045;-59
2023/03/12 04:20:58;;;;;;;11.13;3.53;;;;;;;3.84;88.46;100036.22;8324934;28;20049;-60
2023/03/12 04:24:58;;;;;;;5.00;2.97;;;;;;;3.87;88.64;100035.13;8325176;28;20053;-59
2023/03/12 04:28:59;;;;;;;8.80;3.25;;;;;;;3.89;88.72;100027.88;8326478;28;20459;-59
2023/03/12 04:33:00;;;;;;;6.63;2.83;;;;;;;3.84;90.37;100022.84;8326123;28;20506;-59
2023/03/12 04:37:01;;;;;;;8.85;3.00;;;;;;;3.89;91.46;100028.72;8325882;28;20800;-59
2023/03/12 04:41:07;;;;;;;8.30;3.08;;;;;;;3.90;92.84;100013.53;8324543;28;20052;-60
2023/03/12 04:45:10;;;;;;;9.18;2.67;;;;;;;3.88;93.16;100010.97;8325987;28;20037;-53
2023/03/12 04:49:13;;;;;;;8.70;3.05;;;;;;;3.78;94.74;100004.56;8324647;28;20044;-52
2023/03/12 04:53:15;;;;;;;12.55;3.45;;;;;;;3.68;96.59;100002.69;8324782;28;20083;-56
2023/03/12 04:57:16;;;;;;;8.13;3.63;;;;;;;3.61;98.84;100004.94;8325439;28;20045;-53
2023/03/12 05:01:22;;;;;;;7.97;3.45;;;;;;;3.63;100.00;99997.66;8324424;28;20125;-52
2023/03/12 05:05:23;;;;;;;6.32;3.88;;;;;;;3.58;100.00;99986.47;8323719;28;20145;-50
2023/03/12 05:09:24;;;;;;;14.27;4.47;;;;;;;3.55;100.00;99970.66;8323162;28;20037;-52
2023/03/12 05:13:25;;;;;;;13.48;4.13;;;;;;;3.55;100.00;99983.16;8325122;28;20034;-56
2023/03/12 05:17:29;;;;;;;11.57;4.00;;;;;;;3.54;100.00;99973.44;8324968;28;20526;-57
2023/03/12 05:21:30;;;;;;;13.20;4.38;;;;;;;3.51;100.00;99969.13;8324602;28;20410;-56
2023/03/12 05:25:31;;;;;;;14.30;4.60;;;;;;;3.47;100.00;99961.44;8324896;28;20096;-56
2023/03/12 05:29:34;;;;;;;9.07;4.43;;;;;;;3.38;100.00;99952.28;8324343;28;20127;-56
2023/03/12 05:33:36;;;;;;;11.18;4.30;;;;;;;3.40;100.00;99949.50;8324722;28;20047;-57
2023/03/12 05:37:37;;;;;;;12.85;4.25;;;;;;;3.37;100.00;99945.25;8324942;28;20030;-56
2023/03/12 05:41:38;;;;;;;7.93;4.38;;;;;;;3.37;100.00;99939.03;8323220;28;20584;-56
2023/03/12 05:45:45;;;;;;;7.55;3.65;;;;;;;3.45;100.00;99931.34;8325445;28;20045;-58
2023/03/12 05:49:46;;;;;;;12.02;4.55;;;;;;;3.47;100.00;99935.59;8330362;28;20519;-57
2023/03/12 05:53:47;;;;;;;9.65;3.80;;;;;;;3.51;100.00;99936.25;8331923;28;20032;-52
2023/03/12 05:57:48;;;;;;;6.70;3.60;;;;;;;3.53;100.00;99924.47;8330949;28;20061;-58
2023/03/12 06:01:48;;;;;;;7.50;3.28;;;;;;;3.58;100.00;99927.69;8329856;28;20071;-59
2023/03/12 06:05:53;;;;;;;7.32;3.58;;;;;;;3.60;100.00;99914.19;8329097;28;20037;-53
2023/03/12 06:09:55;;;;;;;7.53;3.15;;;;;;;3.61;100.00;99911.41;8329765;28;20036;-53
2023/03/12 06:13:56;;;;;;;12.85;3.88;;;;;;;3.53;100.00;99911.13;8328514;28;20499;-54
2023/03/12 06:17:56;;;;;;;9.57;3.83;;;;;;;3.54;100.00;99912.81;8330337;28;20459;-53
2023/03/12 06:21:57;;;;;;;5.93;3.45;;;;;;;3.58;100.00;99910.78;8314656;28;20041;-51
2023/03/12 06:26:00;;;;;;;12.90;3.78;;;;;;;3.59;100.00;99910.66;8297893;28;20053;-53
2023/03/12 06:30:01;;;;;;;11.07;4.40;;;;;;;3.62;100.00;99910.44;8296427;28;20254;-52
2023/03/12 06:34:01;;;;;;;11.52;4.53;;;;;;;3.66;100.00;99916.44;8325342;28;20046;-53
2023/03/12 06:38:02;;;;;;;12.57;3.97;;;;;;;3.67;100.00;99916.31;8330077;28;20053;-53
2023/03/12 06:42:03;;;;;;;11.32;4.38;;;;;;;3.70;100.00;99913.41;8328988;28;20045;-53
2023/03/12 06:46:06;;;;;;;11.07;4.10;;;;;;;3.76;100.00;99910.25;8327108;28;20407;-53
2023/03/12 06:50:06;;;;;;;6.95;3.92;;;;;;;3.81;100.00;99913.47;8328101;28;20030;-52
2023/03/12 06:54:07;;;;;;;19.23;4.68;;;;;;;3.84;100.00;99913.25;8328357;28;20045;-53
2023/03/12 06:58:07;;;;;;;4.68;3.20;;;;;;;3.94;100.00;99908.91;8329499;28;20117;-53
2023/03/12 07:02:10;;;;;;;5.25;3.40;;;;;;;3.97;100.00;99911.34;8325950;28;20045;-53
2023/03/12 07:06:15;;;;;;;7.60;3.45;;;;;;;4.05;100.00;99911.66;8324710;28;20503;-53
2023/03/12 07:10:15;;;;;;;10.63;4.05;;;;;;;4.13;100.00;99918.25;8275034;28;20037;-54
2023/03/12 07:14:16;;;;;;;5.00;3.20;;;;;;;4.17;100.00;99898.34;8272240;28;20038;-53
2023/03/12 07:18:16;;;;;;;10.35;4.03;;;;;;;4.33;100.00;99910.41;8270390;28;20042;-53
2023/03/12 07:22:17;;;;;;;8.32;4.45;;;;;;;4.41;100.00;99907.16;8302537;28;20038;-55
2023/03/12 07:26:18;;;;;;;15.60;5.05;;;;;;;4.48;100.00;99903.06;8310119;28;20072;-53
2023/03/12 07:30:18;;;;;;;10.07;4.25;;;;;;;4.63;100.00;99886.66;8302992;28;20042;-53
2023/03/12 07:34:19;;;;;;;7.57;4.00;;;;;;;4.69;100.00;99893.34;8319558;28;20046;-54
2023/03/12 07:38:19;;;;;;;19.10;9.65;;;;;;;4.75;100.00;99892.88;8319249;28;20096;-53
2023/03/12 07:42:19;;;;;;;18.02;8.48;;;;;;;4.85;100.00;99891.22;8321368;28;20041;-53
2023/03/12 07:46:21;;;;;;;11.55;7.53;;;;;;;4.90;100.00;99884.50;8326022;28;20045;-52
2023/03/12 07:50:22;;;;;;;9.27;5.28;;;;;;;5.06;100.00;99898.41;8325750;28;20049;-53
2023/03/12 07:54:27;;;;;;;10.63;5.70;;;;;;;5.20;100.00;99886.59;8325978;28;20034;-53
2023/03/12 07:58:28;;;;;;;12.55;4.80;;;;;;;5.24;100.00;99888.03;8338841;28;20099;-52
2023/03/12 08:02:28;;;;;;;6.20;5.00;;;;;;;5.31;100.00;99889.28;8314218;28;20065;-52
2023/03/12 08:06:29;;;;;;;12.20;6.75;;;;;;;5.43;100.00;99893.66;8307022;28;20047;-57
2023/03/12 08:10:29;;;;;;;10.15;6.28;;;;;;;5.53;100.00;99894.59;8304878;28;20037;-57
2023/03/12 08:14:30;;;;;;;11.48;6.70;;;;;;;5.62;100.00;99899.22;8302131;28;20049;-52
2023/03/12 08:18:30;;;;;;;9.38;6.63;;;;;;;5.66;100.00;99884.56;8293647;28;20091;-51
2023/03/12 08:22:31;;;;;;;12.02;6.13;;;;;;;5.79;100.00;99898.69;8293793;28;20124;-52
2023/03/12 08:26:31;;;;;;;8.82;6.38;;;;;;;5.89;100.00;99895.16;8292799;28;20056;-53
2023/03/12 08:30:32;;;;;;;11.35;6.97;;;;;;;6.01;100.00;99896.00;8301096;28;20357;-52
2023/03/12 08:34:34;;;;;;;8.13;6.50;;;;;;;6.19;100.00;99899.81;8314743;28;20045;-54
2023/03/12 08:38:34;;;;;;;7.82;6.65;;;;;;;6.36;100.00;99899.25;8311439;28;20033;-52
2023/03/12 08:42:35;;;;;;;8.50;5.53;;;;;;;6.47;100.00;99893.84;8310681;28;20056;-52
2023/03/12 08:46:35;;;;;;;9.05;6.22;;;;;;;6.62;100.00;99881.75;8305262;28;20140;-52
2023/03/12 08:50:36;;;;;;;8.88;6.45;;;;;;;6.68;100.00;99875.88;8305577;28;20097;-59
2023/03/12 08:54:36;;;;;;;10.82;7.03;;;;;;;6.75;100.00;99879.75;8309284;28;20037;-59
2023/03/12 08:58:36;;;;;;;12.75;8.15;;;;;;;6.79;100.00;99878.50;8308690;28;20042;-59
2023/03/12 09:02:37;;;;;;;12.07;8.52;;;;;;;6.79;100.00;99873.13;8296349;28;20064;-59
2023/03/12 09:06:38;;;;;;;13.45;8.85;;;;;;;6.81;100.00;99881.91;8302641;28;20113;-59
2023/03/12 09:10:39;;;;;;;12.73;9.27;;;;;;;6.75;100.00;99882.44;8307516;28;20067;-59
2023/03/12 09:14:40;;;;;;;15.38;9.05;;;;;;;6.79;100.00;99889.25;8303799;28;20539;-60
2023/03/12 09:18:40;;;;;;;11.50;8.35;;;;;;;6.88;100.00;99893.81;8307194;28;20475;-59
2023/03/12 09:22:41;;;;;;;10.13;7.63;;;;;;;7.06;100.00;99886.00;8317036;28;20125;-59
2023/03/12 09:26:41;;;;;;;12.55;9.38;;;;;;;7.18;100.00;99891.16;8309551;28;20046;-59
2023/03/12 09:30:42;;;;;;;16.88;10.98;;;;;;;7.29;100.00;99904.47;8302283;28;20452;-59
2023/03/12 09:34:42;;;;;;;22.77;14.27;;;;;;;7.34;100.00;99896.88;8309553;28;20038;-59
2023/03/12 09:38:43;;;;;;;19.70;10.65;;;;;;;7.39;100.00;99905.41;8308373;28;20569;-59
2023/03/12 09:42:51;;;;;;;11.77;8.45;;;;;;;7.44;100.00;99905.00;8300998;28;20100;-59
2023/03/12 09:46:55;;;;;;;11.35;7.53;;;;;;;7.59;100.00;99896.41;8288850;28;20038;-58
2023/03/12 09:50:56;;;;;;;11.63;7.55;;;;;;;7.67;100.00;99903.78;8294344;28;20053;-59
2023/03/12 09:55:06;;;;;;;12.15;7.60;;;;;;;7.88;100.00;99902.72;8336373;28;20041;-59
2023/03/12 09:59:11;;;;;;;12.00;4.43;;;;;;;8.61;100.00;99895.97;8329655;28;20045;-53
2023/03/12 10:03:39;;;;;;;11.05;4.95;;;;;;;9.13;100.00;99887.34;8305312;28;20041;-52
2023/03/12 10:07:49;;;;;;;6.68;4.38;;;;;;;9.45;100.00;99887.78;8318171;28;20064;-53
2023/03/12 10:12:02;;;;;;;13.45;6.00;;;;;;;9.68;100.00;99894.50;8319168;28;20140;-53
2023/03/12 10:16:14;;;;;;;12.95;4.80;;;;;;;9.82;100.00;99896.66;8323475;28;20044;-53
2023/03/12 10:20:44;;;;;;;18.33;9.32;;;;;;;10.01;100.00;99896.56;8324219;28;20661;-54
2023/03/12 10:25:24;;;;;;;15.18;6.90;;;;;;;10.14;100.00;99905.19;8320007;28;20033;-53
2023/03/12 10:29:30;;;;;;;15.77;7.35;;;;;;;10.29;100.00;99895.53;8330250;28;20037;-53
2023/03/12 10:33:46;;;;;;;15.02;7.95;;;;;;;10.46;100.00;99897.38;8322766;28;20040;-53
2023/03/12 10:37:56;;;;;;;13.60;5.18;;;;;;;10.63;100.00;99891.13;8321320;28;20061;-54
2023/03/12 10:42:00;;;;;;;14.48;7.50;;;;;;;10.92;100.00;99902.50;8320249;28;20546;-52
2023/03/12 10:46:32;;;;;;;13.38;6.50;;;;;;;11.10;100.00;99908.72;8322325;28;20049;-53
2023/03/12 10:50:36;;;;;;;13.88;5.80;;;;;;;11.05;100.00;99911.06;8322226;28;20041;-52
2023/03/12 10:54:39;;;;;;;11.97;7.00;;;;;;;11.23;100.00;99922.66;8320164;28;20033;-52
2023/03/12 10:58:43;;;;;;;21.00;8.18;;;;;;;11.22;100.00;99923.69;8321310;28;20049;-52
2023/03/12 11:02:44;;;;;;;18.48;7.10;;;;;;;11.22;100.00;99929.09;8316687;28;20044;-52
2023/03/12 11:07:04;;;;;;;17.73;7.78;;;;;;;11.11;100.00;99929.38;8307190;28;20443;-52
2023/03/12 11:11:05;;;;;;;18.67;8.05;;;;;;;11.13;100.00;99932.75;8295777;28;22848;-52
2023/03/12 11:15:27;;;;;;;16.13;7.20;;;;;;;11.21;100.00;99938.22;8288140;28;20475;-52
2023/03/12 11:19:31;;;;;;;18.00;7.85;;;;;;;11.38;100.00;99926.47;8306408;28;20049;-52
2023/03/12 11:23:32;;;;;;;19.13;8.07;;;;;;;11.38;100.00;99928.34;8299621;28;20050;-51
2023/03/12 11:27:48;;;;;;;20.75;8.38;;;;;;;11.30;100.00;99921.03;8297566;28;20037;-51
2023/03/12 11:31:58;;;;;;;13.02;7.38;;;;;;;11.19;100.00;99923.16;8302551;28;20037;-51
2023/03/12 11:36:24;;;;;;;18.63;9.00;;;;;;;11.22;100.00;99934.50;8316894;28;20037;-55
2023/03/12 11:40:41;;;;;;;21.27;8.45;;;;;;;11.23;100.00;99933.47;8290408;28;20042;-52
2023/03/12 11:45:16;;;;;;;21.45;8.98;;;;;;;11.42;100.00;99930.59;8269766;28;20129;-51
2023/03/12 11:49:48;;;;;;;20.92;9.60;;;;;;;11.76;100.00;99923.34;8301898;28;20048;-53
2023/03/12 11:58:46;;;;;;;13.93;6.15;;;;;;;14.77;91.65;99927.00;8314543;28;20393;-53
2023/03/12 12:03:13;;;;;;;16.40;5.82;;;;;;;14.33;92.34;99939.50;8261455;28;20637;-53
2023/03/12 12:07:53;;;;;;;12.82;5.13;;;;;;;13.21;97.00;99920.88;8263556;28;20050;-52
2023/03/12 12:12:16;;;;;;;19.70;6.15;;;;;;;12.70;100.00;99918.47;8230091;28;20421;-53
2023/03/12 12:16:56;;;;;;;18.67;8.23;;;;;;;12.75;100.00;99905.28;8262576;28;20042;-54
2023/03/12 12:21:23;;;;;;;19.70;5.88;;;;;;;13.01;98.53;99895.09;8255882;28;20046;-52
2023/03/12 12:25:48;;;;;;;15.20;5.00;;;;;;;13.07;96.35;99894.41;8276001;28;20034;-54
2023/03/12 12:30:15;;;;;;;25.88;7.30;;;;;;;12.98;97.23;99895.41;8285915;28;20120;-53
2023/03/12 12:34:56;;;;;;;25.73;6.57;;;;;;;12.84;97.42;99898.84;8287769;28;20038;-55
2023/03/12 12:39:04;;;;;;;18.05;4.38;;;;;;;13.85;94.88;99901.69;8275344;28;20088;-60
2023/03/12 12:43:28;;;;;;;22.73;4.80;;;;;;;13.85;90.63;99888.09;8265038;28;20046;-60
2023/03/12 12:47:39;;;;;;;19.38;4.63;;;;;;;13.93;90.36;99885.31;8265628;28;20046;-60
2023/03/12 12:51:44;;;;;;;17.75;4.20;;;;;;;13.56;89.96;99877.84;8278509;28;20042;-60
2023/03/12 12:55:54;;;;;;;16.35;3.55;;;;;;;13.47;91.74;99880.75;8275540;28;20523;-52
2023/03/12 13:00:11;;;;;;;23.95;4.25;;;;;;;13.41;89.53;99876.03;8277478;28;20062;-59
2023/03/12 13:04:19;;;;;;;15.50;3.28;;;;;;;13.35;91.24;99880.28;8276814;28;20061;-60
2023/03/12 13:12:55;;;;;;;25.73;4.38;;;;;;;13.52;87.81;99872.94;8317392;28;20405;-58
2023/03/12 13:17:07;;;;;;;21.25;4.15;;;;;;;13.46;88.79;99874.50;8315233;28;20038;-59
2023/03/12 13:21:20;;;;;;;22.60;4.65;;;;;;;13.38;88.97;99862.78;8313958;28;20030;-59
2023/03/12 13:25:31;;;;;;;20.63;3.92;;;;;;;13.45;88.63;99861.94;8306893;28;20044;-59
2023/03/12 13:33:47;;;;;;;19.58;5.22;;;;;;;13.86;87.70;99854.47;8320517;27;20469;-59
2023/03/12 13:37:56;;;;;;;24.58;4.20;;;;;;;14.00;86.29;99850.97;8345228;28;20041;-59
2023/03/12 13:41:59;;;;;;;23.90;4.40;;;;;;;13.91;84.87;99856.66;8336738;28;20033;-59
2023/03/12 13:46:05;;;;;;;12.77;2.88;;;;;;;13.68;85.11;99854.72;8357566;28;20120;-52
2023/03/12 13:50:13;;;;;;;17.27;3.22;;;;;;;13.61;84.25;99855.59;8341561;28;20071;-53
2023/03/12 13:54:18;;;;;;;17.13;3.55;;;;;;;13.55;83.54;99835.41;8332922;28;20034;-53
2023/03/12 13:58:22;;;;;;;21.00;4.80;;;;;;;13.59;84.22;99838.63;8341764;28;20044;-53
2023/03/12 14:02:28;;;;;;;20.05;4.45;;;;;;;13.50;82.85;99832.38;8344485;28;20041;-54
2023/03/12 14:06:33;;;;;;;21.40;4.15;;;;;;;13.47;84.08;99831.88;8339509;28;20136;-54
2023/03/12 14:10:59;;;;;;;26.90;5.45;;;;;;;13.64;84.35;99833.53;8341085;28;20495;-54
2023/03/12 14:15:10;;;;;;;22.52;4.28;;;;;;;13.81;81.13;99829.69;8324226;28;20065;-60
2023/03/12 14:19:13;;;;;;;17.90;4.07;;;;;;;13.85;79.21;99812.84;8313477;28;20049;-57
2023/03/12 14:23:16;;;;;;;19.58;4.20;;;;;;;13.82;79.40;99815.09;8315289;28;20045;-57
2023/03/12 14:27:22;;;;;;;24.88;4.32;;;;;;;13.87;79.36;99823.53;8310729;28;20038;-56
2023/03/12 14:31:24;;;;;;;24.23;3.90;;;;;;;13.73;80.67;99816.16;8333909;28;20131;-57
2023/03/12 14:35:33;;;;;;;19.42;3.88;;;;;;;13.72;81.07;99825.31;8344520;28;20042;-57
2023/03/12 14:40:00;;;;;;;20.65;4.10;;;;;;;13.74;80.72;99812.41;8344552;28;20429;-57
2023/03/12 14:44:05;;;;;;;18.65;3.85;;;;;;;13.86;80.10;99819.13;8313646;28;20607;-54
2023/03/12 14:48:05;;;;;;;18.00;4.22;;;;;;;13.86;82.39;99824.56;8299301;28;20511;-53
2023/03/12 14:52:06;;;;;;;25.23;4.07;;;;;;;13.74;82.28;99831.44;8289837;28;20472;-53
2023/03/12 14:56:13;;;;;;;20.52;3.00;;;;;;;13.53;83.90;99845.63;8318183;28;20113;-53
2023/03/12 15:04:34;;;;;;;24.00;3.78;;;;;;;13.40;82.98;99860.75;8345203;27;20388;-55
2023/03/12 15:08:41;;;;;;;21.13;3.65;;;;;;;13.43;82.22;99857.69;8311842;28;20053;-55
2023/03/12 15:12:44;;;;;;;25.13;4.70;;;;;;;13.45;83.68;99848.34;8312461;28;20040;-55
2023/03/12 15:16:45;;;;;;;23.83;4.32;;;;;;;13.60;82.71;99862.88;8311719;28;20038;-55
2023/03/12 15:20:48;;;;;;;27.58;3.95;;;;;;;13.77;80.90;99866.38;8319389;28;20045;-56
2023/03/12 15:24:49;;;;;;;24.08;3.60;;;;;;;13.77;79.86;99863.69;8304899;28;20080;-55
2023/03/12 15:29:03;;;;;;;19.73;4.05;;;;;;;13.65;79.08;99871.38;8322770;28;20416;-55
2023/03/12 15:37:36;;;;;;;33.97;4.85;;;;;;;13.39;75.52;99875.38;8377835;27;20996;-53
2023/03/12 15:41:48;;;;;;;31.40;4.93;;;;;;;13.34;75.60;99869.59;8356110;28;20045;-53
2023/03/12 15:46:06;;;;;;;34.42;5.57;;;;;;;13.35;76.20;99871.28;8337257;28;20135;-55
2023/03/12 15:50:17;;;;;;;28.50;4.78;;;;;;;13.33;75.95;99878.78;8327415;28;20065;-54
2023/03/12 15:58:33;;;;;;;31.08;4.72;;;;;;;13.31;74.01;99880.81;8388016;27;21128;-54
2023/03/12 16:02:37;;;;;;;27.80;4.47;;;;;;;13.37;74.07;99880.13;8330124;28;20048;-53
2023/03/12 16:06:37;;;;;;;34.73;4.77;;;;;;;13.30;73.78;99877.25;8336948;28;20388;-53
2023/03/12 16:10:38;;;;;;;30.80;4.03;;;;;;;13.33;72.89;99893.19;8363378;28;20033;-54
2023/03/12 16:14:39;;;;;;;26.98;4.18;;;;;;;13.25;73.16;99886.94;8325601;28;20550;-51
2023/03/12 16:18:40;;;;;;;21.58;4.22;;;;;;;13.17;73.48;99911.38;8336054;28;20048;-53
2023/03/12 16:22:41;;;;;;;26.80;4.72;;;;;;;13.14;73.50;99903.56;8326262;28;20048;-52
2023/03/12 16:26:53;;;;;;;21.63;4.18;;;;;;;13.14;73.42;99903.56;8379606;28;20063;-52
2023/03/12 16:30:53;;;;;;;24.00;4.13;;;;;;;13.04;74.58;99900.19;8409685;28;20036;-53
2023/03/12 16:34:54;;;;;;;27.48;4.10;;;;;;;13.08;74.92;99898.81;8355938;28;20242;-53
2023/03/12 16:38:54;;;;;;;26.67;4.28;;;;;;;12.99;75.68;99898.00;8334611;28;20042;-53
2023/03/12 16:42:55;;;;;;;26.60;4.28;;;;;;;12.97;76.12;99899.16;8375259;28;20047;-52
2023/03/12 16:46:55;;;;;;;30.38;5.13;;;;;;;12.88;77.74;99894.75;8411723;28;20040;-54
2023/03/12 16:50:56;;;;;;;26.33;4.78;;;;;;;12.93;77.53;99903.25;8411265;28;20068;-53
2023/03/12 16:54:57;;;;;;;26.77;4.07;;;;;;;12.86;77.99;99896.78;8410762;28;20432;-54
2023/03/12 16:59:00;;;;;;;29.23;4.28;;;;;;;12.97;77.08;99893.72;8366819;28;20053;-53
2023/03/12 17:03:01;;;;;;;25.43;3.57;;;;;;;12.67;79.31;99887.13;8323785;28;20099;-53
2023/03/12 17:07:01;;;;;;;25.40;3.72;;;;;;;12.53;80.05;99895.09;8337412;28;20045;-52
2023/03/12 17:11:12;;;;;;;30.50;5.20;;;;;;;12.40;81.21;99900.16;8354863;28;20103;-52
2023/03/12 17:15:18;;;;;;;29.23;4.13;;;;;;;12.28;81.49;99917.72;8357598;28;20041;-53
2023/03/12 17:19:19;;;;;;;30.27;4.63;;;;;;;12.19;82.34;99907.88;8354460;28;20048;-53
2023/03/12 17:23:19;;;;;;;28.15;4.20;;;;;;;12.22;82.16;99896.72;8344874;28;20037;-53
2023/03/12 17:27:20;;;;;;;33.95;4.57;;;;;;;12.10;83.37;99914.34;8325697;28;20068;-53
2023/03/12 17:31:20;;;;;;;28.52;4.60;;;;;;;12.14;82.87;99902.13;8329937;28;20413;-54
2023/03/12 17:35:21;;;;;;;35.47;5.32;;;;;;;12.10;82.94;99898.06;8288409;28;20096;-58
2023/03/12 17:39:22;;;;;;;30.90;5.13;;;;;;;12.08;83.33;99905.50;8299346;28;20469;-59
2023/03/12 17:43:26;;;;;;;28.08;4.18;;;;;;;12.04;83.49;99918.53;8329582;28;20590;-58
2023/03/12 17:47:27;;;;;;;38.08;5.40;;;;;;;12.10;83.18;99919.75;8337282;28;20453;-58
2023/03/12 17:51:28;;;;;;;34.22;5.38;;;;;;;12.10;83.37;99917.03;8356385;28;20044;-58
2023/03/12 17:55:28;;;;;;;24.02;5.63;;;;;;;12.06;83.31;99923.78;8386792;28;20040;-58
2023/03/12 17:59:29;;;;;;;35.30;4.63;;;;;;;12.08;82.90;99927.19;8380192;28;20051;-58
2023/03/12 18:03:29;;;;;;;28.17;5.05;;;;;;;11.96;84.10;99933.91;8319421;28;20561;-58
2023/03/12 18:07:30;;;;;;;23.20;5.72;;;;;;;12.08;82.81;99935.31;8320920;28;20450;-58
2023/03/12 18:11:30;;;;;;;26.55;6.15;;;;;;;12.12;82.44;99944.81;8336755;28;20036;-58
2023/03/12 18:15:31;;;;;;;26.77;5.28;;;;;;;12.20;81.24;99940.25;8324862;28;20056;-58
2023/03/12 18:19:31;;;;;;;28.67;5.35;;;;;;;12.16;81.85;99948.88;8319351;28;20052;-58
2023/03/12 18:23:32;;;;;;;27.55;4.68;;;;;;;12.21;81.40;99954.66;8320055;28;20053;-58
2023/03/12 18:27:33;;;;;;;31.15;4.82;;;;;;;12.25;81.13;99962.28;8318821;28;20904;-58
2023/03/12 18:31:33;;;;;;;34.33;5.18;;;;;;;12.16;82.00;99954.28;8318095;28;20087;-60
2023/03/12 18:35:33;;;;;;;26.65;4.70;;;;;;;12.13;82.14;99968.19;8318267;28;20045;-60
2023/03/12 18:39:34;;;;;;;26.70;5.07;;;;;;;12.05;82.59;99957.31;8308893;28;20100;-60
2023/03/12 18:43:35;;;;;;;31.80;5.20;;;;;;;12.01;82.99;99955.94;8295579;28;20550;-60
2023/03/12 18:47:38;;;;;;;32.95;6.60;;;;;;;11.93;83.41;99944.06;8288529;28;20046;-60
2023/03/12 18:51:38;;;;;;;28.55;5.15;;;;;;;11.88;83.62;99943.72;8293514;28;20042;-60
2023/03/12 18:55:39;;;;;;;35.17;4.68;;;;;;;11.99;82.06;99933.59;8298331;28;20061;-60
2023/03/12 18:59:44;;;;;;;25.67;5.40;;;;;;;12.02;81.41;99938.69;8318256;28;20057;-59
2023/03/12 19:03:44;;;;;;;24.65;4.35;;;;;;;12.01;80.97;99932.41;8317424;28;20041;-59
2023/03/12 19:07:45;;;;;;;27.73;4.40;;;;;;;11.97;81.08;99932.88;8362679;28;20056;-59
2023/03/12 19:11:46;;;;;;;24.02;4.65;;;;;;;11.84;81.68;99926.06;8293658;28;20412;-56
2023/03/12 19:15:47;;;;;;;28.77;5.72;;;;;;;11.80;82.09;99930.13;8284736;28;20065;-58
2023/03/12 19:19:47;;;;;;;23.77;5.38;;;;;;;11.72;82.33;99927.38;8300285;28;20095;-51
2023/03/12 19:23:48;;;;;;;37.80;5.57;;;;;;;11.65;82.72;99915.50;8318354;28;20041;-52
2023/03/12 19:27:49;;;;;;;29.40;4.45;;;;;;;11.59;82.86;99920.69;8316851;28;20045;-52